sensor_id;sensor_type;location;lat;lon;timestamp;P1;durP1;ratioP1;P2;durP2;ratioP2
9801;SDS011;4940;50.900;4.672;2023-06-14T00:02:20;8.18;;;5.00;;
9801;SDS011;4940;50.900;4.672;2023-06-14T00:04:48;7.07;;;4.72;;
9801;SDS011;4940;50.900;4.672;2023-06-14T00:07:17;9.05;;;5.10;;
9801;SDS011;4940;50.900;4.672;2023-06-14T00:09:45;6.82;;;5.60;;
9801;SDS011;4940;50.900;4.672;2023-06-14T00:12:13;9.70;;;5.05;;
9801;SDS011;4940;50.900;4.672;2023-06-14T00:14:41;6.40;;;4.85;;
9801;SDS011;4940;50.900;4.672;2023-06-14T00:17:08;7.18;;;5.20;;
9801;SDS011;4940;50.900;4.672;2023-06-14T00:19:35;6.70;;;4.90;;
9801;SDS011;4940;50.900;4.672;2023-06-14T00:22:04;6.82;;;4.97;;
9801;SDS011;4940;50.900;4.672;2023-06-14T00:24:31;6.93;;;5.07;;
9801;SDS011;4940;50.900;4.672;2023-06-14T00:26:59;7.85;;;5.07;;
9801;SDS011;4940;50.900;4.672;2023-06-14T00:29:27;7.68;;;5.43;;
9801;SDS011;4940;50.900;4.672;2023-06-14T00:31:54;5.43;;;4.80;;
9801;SDS011;4940;50.900;4.672;2023-06-14T00:34:22;5.55;;;4.90;;
9801;SDS011;4940;50.900;4.672;2023-06-14T00:36:49;6.78;;;5.22;;
9801;SDS011;4940;50.900;4.672;2023-06-14T00:39:16;7.93;;;5.30;;
9801;SDS011;4940;50.900;4.672;2023-06-14T00:41:43;5.25;;;4.70;;
9801;SDS011;4940;50.900;4.672;2023-06-14T00:44:11;5.70;;;5.10;;
9801;SDS011;4940;50.900;4.672;2023-06-14T00:46:44;5.80;;;4.90;;
9801;SDS011;4940;50.900;4.672;2023-06-14T00:49:12;7.35;;;5.38;;
9801;SDS011;4940;50.900;4.672;2023-06-14T00:51:41;6.00;;;4.60;;
9801;SDS011;4940;50.900;4.672;2023-06-14T00:54:08;5.90;;;5.20;;
9801;SDS011;4940;50.900;4.672;2023-06-14T00:56:36;6.75;;;5.70;;
9801;SDS011;4940;50.900;4.672;2023-06-14T00:59:04;5.82;;;5.22;;
9801;SDS011;4940;50.900;4.672;2023-06-14T01:01:32;7.22;;;4.75;;
9801;SDS011;4940;50.900;4.672;2023-06-14T01:04:01;6.32;;;5.00;;
9801;SDS011;4940;50.900;4.672;2023-06-14T01:06:30;6.80;;;5.47;;
9801;SDS011;4940;50.900;4.672;2023-06-14T01:09:09;6.20;;;4.85;;
9801;SDS011;4940;50.900;4.672;2023-06-14T01:11:45;7.60;;;5.50;;
9801;SDS011;4940;50.900;4.672;2023-06-14T01:14:18;9.73;;;5.70;;
9801;SDS011;4940;50.900;4.672;2023-06-14T01:16:46;7.25;;;5.70;;
9801;SDS011;4940;50.900;4.672;2023-06-14T01:19:19;8.65;;;5.38;;
9801;SDS011;4940;50.900;4.672;2023-06-14T01:21:50;5.85;;;5.00;;
9801;SDS011;4940;50.900;4.672;2023-06-14T01:24:19;6.43;;;5.45;;
9801;SDS011;4940;50.900;4.672;2023-06-14T01:26:51;7.43;;;5.25;;
9801;SDS011;4940;50.900;4.672;2023-06-14T01:29:21;6.97;;;5.20;;
9801;SDS011;4940;50.900;4.672;2023-06-14T01:31:50;7.75;;;5.32;;
9801;SDS011;4940;50.900;4.672;2023-06-14T01:34:17;9.30;;;5.85;;
9801;SDS011;4940;50.900;4.672;2023-06-14T01:36:45;6.32;;;5.45;;
9801;SDS011;4940;50.900;4.672;2023-06-14T01:39:14;7.68;;;5.38;;
9801;SDS011;4940;50.900;4.672;2023-06-14T01:41:43;6.05;;;5.18;;
9801;SDS011;4940;50.900;4.672;2023-06-14T01:44:12;7.53;;;5.40;;
9801;SDS011;4940;50.900;4.672;2023-06-14T01:46:40;6.80;;;5.35;;
9801;SDS011;4940;50.900;4.672;2023-06-14T01:49:09;8.90;;;5.15;;
9801;SDS011;4940;50.900;4.672;2023-06-14T01:51:37;7.72;;;5.55;;
9801;SDS011;4940;50.900;4.672;2023-06-14T01:54:04;7.65;;;5.75;;
9801;SDS011;4940;50.900;4.672;2023-06-14T01:56:32;7.15;;;5.60;;
9801;SDS011;4940;50.900;4.672;2023-06-14T01:59:00;8.45;;;5.57;;
9801;SDS011;4940;50.900;4.672;2023-06-14T02:01:28;8.93;;;5.93;;
9801;SDS011;4940;50.900;4.672;2023-06-14T02:03:56;7.53;;;5.28;;
9801;SDS011;4940;50.900;4.672;2023-06-14T02:06:24;7.40;;;5.57;;
9801;SDS011;4940;50.900;4.672;2023-06-14T02:08:53;7.10;;;5.45;;
9801;SDS011;4940;50.900;4.672;2023-06-14T02:11:20;7.32;;;5.50;;
9801;SDS011;4940;50.900;4.672;2023-06-14T02:13:47;6.57;;;5.53;;
9801;SDS011;4940;50.900;4.672;2023-06-14T02:16:17;7.57;;;5.85;;
9801;SDS011;4940;50.900;4.672;2023-06-14T02:18:44;8.57;;;5.53;;
9801;SDS011;4940;50.900;4.672;2023-06-14T02:21:12;10.15;;;6.30;;
9801;SDS011;4940;50.900;4.672;2023-06-14T02:23:39;7.05;;;5.43;;
9801;SDS011;4940;50.900;4.672;2023-06-14T02:26:06;7.78;;;5.60;;
9801;SDS011;4940;50.900;4.672;2023-06-14T02:28:34;12.07;;;6.57;;
9801;SDS011;4940;50.900;4.672;2023-06-14T02:31:01;6.88;;;5.82;;
9801;SDS011;4940;50.900;4.672;2023-06-14T02:33:30;8.05;;;6.32;;
9801;SDS011;4940;50.900;4.672;2023-06-14T02:35:57;6.07;;;5.47;;
9801;SDS011;4940;50.900;4.672;2023-06-14T02:38:25;6.53;;;5.75;;
9801;SDS011;4940;50.900;4.672;2023-06-14T02:40:52;8.70;;;6.15;;
9801;SDS011;4940;50.900;4.672;2023-06-14T02:43:19;7.70;;;6.10;;
9801;SDS011;4940;50.900;4.672;2023-06-14T02:45:46;7.75;;;5.90;;
9801;SDS011;4940;50.900;4.672;2023-06-14T02:48:14;8.27;;;6.05;;
9801;SDS011;4940;50.900;4.672;2023-06-14T02:50:43;8.05;;;6.40;;
9801;SDS011;4940;50.900;4.672;2023-06-14T02:53:11;7.97;;;6.20;;
9801;SDS011;4940;50.900;4.672;2023-06-14T02:55:38;9.75;;;6.25;;
9801;SDS011;4940;50.900;4.672;2023-06-14T02:58:06;7.85;;;5.97;;
9801;SDS011;4940;50.900;4.672;2023-06-14T03:00:33;6.90;;;5.63;;
9801;SDS011;4940;50.900;4.672;2023-06-14T03:03:01;6.93;;;6.15;;
9801;SDS011;4940;50.900;4.672;2023-06-14T03:05:30;10.20;;;6.55;;
9801;SDS011;4940;50.900;4.672;2023-06-14T03:07:59;8.15;;;6.55;;
9801;SDS011;4940;50.900;4.672;2023-06-14T03:10:27;7.57;;;6.50;;
9801;SDS011;4940;50.900;4.672;2023-06-14T03:12:55;9.00;;;6.82;;
9801;SDS011;4940;50.900;4.672;2023-06-14T03:15:22;7.72;;;6.32;;
9801;SDS011;4940;50.900;4.672;2023-06-14T03:17:50;7.03;;;6.32;;
9801;SDS011;4940;50.900;4.672;2023-06-14T03:20:18;8.15;;;6.22;;
9801;SDS011;4940;50.900;4.672;2023-06-14T03:22:46;9.13;;;6.75;;
9801;SDS011;4940;50.900;4.672;2023-06-14T03:25:14;7.30;;;6.20;;
9801;SDS011;4940;50.900;4.672;2023-06-14T03:27:42;9.45;;;6.93;;
9801;SDS011;4940;50.900;4.672;2023-06-14T03:30:09;9.23;;;6.43;;
9801;SDS011;4940;50.900;4.672;2023-06-14T03:32:37;9.45;;;6.68;;
9801;SDS011;4940;50.900;4.672;2023-06-14T03:35:05;10.73;;;7.07;;
9801;SDS011;4940;50.900;4.672;2023-06-14T03:37:32;9.35;;;6.65;;
9801;SDS011;4940;50.900;4.672;2023-06-14T03:40:00;7.45;;;6.60;;
9801;SDS011;4940;50.900;4.672;2023-06-14T03:42:33;8.57;;;6.32;;
9801;SDS011;4940;50.900;4.672;2023-06-14T03:45:00;9.70;;;6.82;;
9801;SDS011;4940;50.900;4.672;2023-06-14T03:47:27;9.85;;;6.53;;
9801;SDS011;4940;50.900;4.672;2023-06-14T03:49:54;12.07;;;6.88;;
9801;SDS011;4940;50.900;4.672;2023-06-14T03:52:22;8.18;;;6.65;;
9801;SDS011;4940;50.900;4.672;2023-06-14T03:54:50;8.48;;;7.30;;
9801;SDS011;4940;50.900;4.672;2023-06-14T03:57:18;9.68;;;6.82;;
9801;SDS011;4940;50.900;4.672;2023-06-14T03:59:47;8.55;;;6.57;;
9801;SDS011;4940;50.900;4.672;2023-06-14T04:02:14;12.10;;;7.30;;
9801;SDS011;4940;50.900;4.672;2023-06-14T04:04:41;10.02;;;6.65;;
9801;SDS011;4940;50.900;4.672;2023-06-14T04:07:10;9.65;;;6.95;;
9801;SDS011;4940;50.900;4.672;2023-06-14T04:09:37;8.23;;;6.45;;
9801;SDS011;4940;50.900;4.672;2023-06-14T04:12:05;8.13;;;6.45;;
9801;SDS011;4940;50.900;4.672;2023-06-14T04:14:34;9.02;;;6.70;;
9801;SDS011;4940;50.900;4.672;2023-06-14T04:17:02;8.60;;;6.38;;
9801;SDS011;4940;50.900;4.672;2023-06-14T04:19:30;8.95;;;6.90;;
9801;SDS011;4940;50.900;4.672;2023-06-14T04:21:57;9.75;;;6.57;;
9801;SDS011;4940;50.900;4.672;2023-06-14T04:24:26;9.40;;;6.65;;
9801;SDS011;4940;50.900;4.672;2023-06-14T04:26:57;7.38;;;6.15;;
9801;SDS011;4940;50.900;4.672;2023-06-14T04:29:26;8.55;;;6.75;;
9801;SDS011;4940;50.900;4.672;2023-06-14T04:31:54;9.93;;;7.03;;
9801;SDS011;4940;50.900;4.672;2023-06-14T04:34:26;9.43;;;7.05;;
9801;SDS011;4940;50.900;4.672;2023-06-14T04:36:59;7.20;;;5.90;;
9801;SDS011;4940;50.900;4.672;2023-06-14T04:39:27;12.40;;;7.25;;
9801;SDS011;4940;50.900;4.672;2023-06-14T04:41:55;7.35;;;6.22;;
9801;SDS011;4940;50.900;4.672;2023-06-14T04:44:25;8.40;;;6.57;;
9801;SDS011;4940;50.900;4.672;2023-06-14T04:46:56;9.52;;;7.00;;
9801;SDS011;4940;50.900;4.672;2023-06-14T04:49:24;11.50;;;7.28;;
9801;SDS011;4940;50.900;4.672;2023-06-14T04:51:56;10.38;;;6.50;;
9801;SDS011;4940;50.900;4.672;2023-06-14T04:54:24;8.73;;;6.20;;
9801;SDS011;4940;50.900;4.672;2023-06-14T04:56:52;10.70;;;6.47;;
9801;SDS011;4940;50.900;4.672;2023-06-14T04:59:20;7.88;;;6.28;;
9801;SDS011;4940;50.900;4.672;2023-06-14T05:01:48;11.48;;;6.40;;
9801;SDS011;4940;50.900;4.672;2023-06-14T05:04:16;8.77;;;6.88;;
9801;SDS011;4940;50.900;4.672;2023-06-14T05:06:45;12.90;;;7.15;;
9801;SDS011;4940;50.900;4.672;2023-06-14T05:09:13;8.93;;;6.80;;
9801;SDS011;4940;50.900;4.672;2023-06-14T05:11:42;9.32;;;6.85;;
9801;SDS011;4940;50.900;4.672;2023-06-14T05:14:09;9.32;;;6.75;;
9801;SDS011;4940;50.900;4.672;2023-06-14T05:16:37;9.70;;;6.93;;
9801;SDS011;4940;50.900;4.672;2023-06-14T05:19:05;9.65;;;7.00;;
9801;SDS011;4940;50.900;4.672;2023-06-14T05:21:33;9.35;;;6.53;;
9801;SDS011;4940;50.900;4.672;2023-06-14T05:24:01;9.82;;;6.85;;
9801;SDS011;4940;50.900;4.672;2023-06-14T05:26:28;8.32;;;6.35;;
9801;SDS011;4940;50.900;4.672;2023-06-14T05:28:56;9.82;;;6.85;;
9801;SDS011;4940;50.900;4.672;2023-06-14T05:31:24;12.10;;;7.22;;
9801;SDS011;4940;50.900;4.672;2023-06-14T05:33:52;10.55;;;7.28;;
9801;SDS011;4940;50.900;4.672;2023-06-14T05:36:19;9.05;;;6.93;;
9801;SDS011;4940;50.900;4.672;2023-06-14T05:38:47;11.23;;;6.97;;
9801;SDS011;4940;50.900;4.672;2023-06-14T05:41:17;11.40;;;7.25;;
9801;SDS011;4940;50.900;4.672;2023-06-14T05:43:46;7.95;;;6.47;;
9801;SDS011;4940;50.900;4.672;2023-06-14T05:46:13;9.60;;;6.93;;
9801;SDS011;4940;50.900;4.672;2023-06-14T05:48:40;10.93;;;7.65;;
9801;SDS011;4940;50.900;4.672;2023-06-14T05:51:07;12.27;;;7.35;;
9801;SDS011;4940;50.900;4.672;2023-06-14T05:53:36;10.45;;;7.28;;
9801;SDS011;4940;50.900;4.672;2023-06-14T05:56:03;12.75;;;7.25;;
9801;SDS011;4940;50.900;4.672;2023-06-14T05:58:32;10.25;;;7.45;;
9801;SDS011;4940;50.900;4.672;2023-06-14T06:00:59;9.98;;;7.20;;
9801;SDS011;4940;50.900;4.672;2023-06-14T06:03:27;9.15;;;7.68;;
9801;SDS011;4940;50.900;4.672;2023-06-14T06:05:55;10.35;;;7.55;;
9801;SDS011;4940;50.900;4.672;2023-06-14T06:08:22;10.80;;;7.30;;
9801;SDS011;4940;50.900;4.672;2023-06-14T06:10:50;10.63;;;7.63;;
9801;SDS011;4940;50.900;4.672;2023-06-14T06:13:17;10.40;;;7.72;;
9801;SDS011;4940;50.900;4.672;2023-06-14T06:15:46;9.48;;;7.60;;
9801;SDS011;4940;50.900;4.672;2023-06-14T06:18:13;12.68;;;7.28;;
9801;SDS011;4940;50.900;4.672;2023-06-14T06:20:44;12.88;;;7.78;;
9801;SDS011;4940;50.900;4.672;2023-06-14T06:23:12;11.10;;;7.47;;
9801;SDS011;4940;50.900;4.672;2023-06-14T06:25:39;14.75;;;7.63;;
9801;SDS011;4940;50.900;4.672;2023-06-14T06:28:07;11.00;;;7.75;;
9801;SDS011;4940;50.900;4.672;2023-06-14T06:30:34;9.68;;;7.70;;
9801;SDS011;4940;50.900;4.672;2023-06-14T06:33:03;8.32;;;6.65;;
9801;SDS011;4940;50.900;4.672;2023-06-14T06:35:30;12.23;;;7.47;;
9801;SDS011;4940;50.900;4.672;2023-06-14T06:37:58;10.95;;;7.22;;
9801;SDS011;4940;50.900;4.672;2023-06-14T06:40:26;8.77;;;7.25;;
9801;SDS011;4940;50.900;4.672;2023-06-14T06:42:54;13.77;;;6.68;;
9801;SDS011;4940;50.900;4.672;2023-06-14T06:45:21;9.93;;;7.40;;
9801;SDS011;4940;50.900;4.672;2023-06-14T06:47:50;8.63;;;6.05;;
9801;SDS011;4940;50.900;4.672;2023-06-14T06:50:19;12.73;;;6.35;;
9801;SDS011;4940;50.900;4.672;2023-06-14T06:52:48;10.50;;;6.93;;
9801;SDS011;4940;50.900;4.672;2023-06-14T06:55:16;8.18;;;6.65;;
9801;SDS011;4940;50.900;4.672;2023-06-14T06:57:43;11.23;;;6.65;;
9801;SDS011;4940;50.900;4.672;2023-06-14T07:00:11;8.38;;;6.47;;
9801;SDS011;4940;50.900;4.672;2023-06-14T07:02:38;9.80;;;6.95;;
9801;SDS011;4940;50.900;4.672;2023-06-14T07:05:06;12.38;;;7.10;;
9801;SDS011;4940;50.900;4.672;2023-06-14T07:07:35;8.40;;;6.80;;
9801;SDS011;4940;50.900;4.672;2023-06-14T07:10:02;8.25;;;6.80;;
9801;SDS011;4940;50.900;4.672;2023-06-14T07:12:30;7.80;;;6.47;;
9801;SDS011;4940;50.900;4.672;2023-06-14T07:14:59;9.45;;;7.38;;
9801;SDS011;4940;50.900;4.672;2023-06-14T07:17:26;7.90;;;6.57;;
9801;SDS011;4940;50.900;4.672;2023-06-14T07:19:54;7.60;;;6.30;;
9801;SDS011;4940;50.900;4.672;2023-06-14T07:22:21;7.97;;;6.78;;
9801;SDS011;4940;50.900;4.672;2023-06-14T07:24:50;10.95;;;7.88;;
9801;SDS011;4940;50.900;4.672;2023-06-14T07:27:17;11.57;;;6.60;;
9801;SDS011;4940;50.900;4.672;2023-06-14T07:29:45;11.10;;;6.65;;
9801;SDS011;4940;50.900;4.672;2023-06-14T07:32:12;7.55;;;6.45;;
9801;SDS011;4940;50.900;4.672;2023-06-14T07:34:39;9.95;;;6.65;;
9801;SDS011;4940;50.900;4.672;2023-06-14T07:37:07;8.65;;;7.40;;
9801;SDS011;4940;50.900;4.672;2023-06-14T07:39:34;8.02;;;6.95;;
9801;SDS011;4940;50.900;4.672;2023-06-14T07:42:02;9.32;;;6.97;;
9801;SDS011;4940;50.900;4.672;2023-06-14T07:44:30;14.20;;;7.05;;
9801;SDS011;4940;50.900;4.672;2023-06-14T07:46:57;9.45;;;6.80;;
9801;SDS011;4940;50.900;4.672;2023-06-14T07:49:25;8.57;;;6.72;;
9801;SDS011;4940;50.900;4.672;2023-06-14T07:51:52;9.68;;;6.88;;
9801;SDS011;4940;50.900;4.672;2023-06-14T07:54:20;8.30;;;6.68;;
9801;SDS011;4940;50.900;4.672;2023-06-14T07:56:50;7.40;;;6.80;;
9801;SDS011;4940;50.900;4.672;2023-06-14T07:59:18;7.45;;;6.75;;
9801;SDS011;4940;50.900;4.672;2023-06-14T08:01:46;7.45;;;6.53;;
9801;SDS011;4940;50.900;4.672;2023-06-14T08:04:14;9.32;;;6.30;;
9801;SDS011;4940;50.900;4.672;2023-06-14T08:06:41;11.55;;;7.45;;
9801;SDS011;4940;50.900;4.672;2023-06-14T08:09:09;8.65;;;6.97;;
9801;SDS011;4940;50.900;4.672;2023-06-14T08:11:37;7.53;;;6.72;;
9801;SDS011;4940;50.900;4.672;2023-06-14T08:14:04;10.55;;;6.47;;
9801;SDS011;4940;50.900;4.672;2023-06-14T08:16:33;11.70;;;7.10;;
9801;SDS011;4940;50.900;4.672;2023-06-14T08:19:00;7.72;;;7.03;;
9801;SDS011;4940;50.900;4.672;2023-06-14T08:21:27;7.55;;;6.75;;
9801;SDS011;4940;50.900;4.672;2023-06-14T08:23:54;7.93;;;7.22;;
9801;SDS011;4940;50.900;4.672;2023-06-14T08:26:22;7.10;;;6.50;;
9801;SDS011;4940;50.900;4.672;2023-06-14T08:28:49;8.48;;;7.28;;
9801;SDS011;4940;50.900;4.672;2023-06-14T08:31:16;8.85;;;7.10;;
9801;SDS011;4940;50.900;4.672;2023-06-14T08:33:45;15.95;;;7.97;;
9801;SDS011;4940;50.900;4.672;2023-06-14T08:36:13;11.75;;;7.53;;
9801;SDS011;4940;50.900;4.672;2023-06-14T08:38:40;9.23;;;7.60;;
9801;SDS011;4940;50.900;4.672;2023-06-14T08:41:08;14.18;;;7.38;;
9801;SDS011;4940;50.900;4.672;2023-06-14T08:43:39;8.75;;;7.22;;
9801;SDS011;4940;50.900;4.672;2023-06-14T08:46:06;8.45;;;7.57;;
9801;SDS011;4940;50.900;4.672;2023-06-14T08:48:37;9.13;;;7.95;;
9801;SDS011;4940;50.900;4.672;2023-06-14T08:51:11;10.02;;;7.65;;
9801;SDS011;4940;50.900;4.672;2023-06-14T08:53:41;13.65;;;7.90;;
9801;SDS011;4940;50.900;4.672;2023-06-14T08:56:10;8.77;;;7.88;;
9801;SDS011;4940;50.900;4.672;2023-06-14T08:58:40;8.60;;;7.70;;
9801;SDS011;4940;50.900;4.672;2023-06-14T09:01:10;8.60;;;7.63;;
9801;SDS011;4940;50.900;4.672;2023-06-14T09:03:39;12.38;;;7.15;;
9801;SDS011;4940;50.900;4.672;2023-06-14T09:06:08;8.38;;;7.18;;
9801;SDS011;4940;50.900;4.672;2023-06-14T09:08:40;13.27;;;7.55;;
9801;SDS011;4940;50.900;4.672;2023-06-14T09:11:10;12.75;;;7.35;;
9801;SDS011;4940;50.900;4.672;2023-06-14T09:13:38;8.32;;;7.30;;
9801;SDS011;4940;50.900;4.672;2023-06-14T09:16:06;8.05;;;6.90;;
9801;SDS011;4940;50.900;4.672;2023-06-14T09:18:34;10.80;;;7.13;;
9801;SDS011;4940;50.900;4.672;2023-06-14T09:21:02;9.40;;;7.32;;
9801;SDS011;4940;50.900;4.672;2023-06-14T09:23:32;11.25;;;6.95;;
9801;SDS011;4940;50.900;4.672;2023-06-14T09:26:06;8.40;;;7.20;;
9801;SDS011;4940;50.900;4.672;2023-06-14T09:28:34;11.43;;;7.40;;
9801;SDS011;4940;50.900;4.672;2023-06-14T09:31:01;9.23;;;7.43;;
9801;SDS011;4940;50.900;4.672;2023-06-14T09:33:30;8.07;;;7.25;;
9801;SDS011;4940;50.900;4.672;2023-06-14T09:35:58;7.40;;;6.57;;
9801;SDS011;4940;50.900;4.672;2023-06-14T09:38:26;9.18;;;6.75;;
9801;SDS011;4940;50.900;4.672;2023-06-14T09:40:57;6.75;;;5.97;;
9801;SDS011;4940;50.900;4.672;2023-06-14T09:43:25;7.22;;;6.50;;
9801;SDS011;4940;50.900;4.672;2023-06-14T09:45:53;8.77;;;6.28;;
9801;SDS011;4940;50.900;4.672;2023-06-14T09:48:20;8.60;;;7.22;;
9801;SDS011;4940;50.900;4.672;2023-06-14T09:50:49;7.00;;;6.30;;
9801;SDS011;4940;50.900;4.672;2023-06-14T09:53:17;7.18;;;5.95;;
9801;SDS011;4940;50.900;4.672;2023-06-14T09:55:48;6.93;;;6.13;;
9801;SDS011;4940;50.900;4.672;2023-06-14T09:58:17;6.22;;;5.68;;
9801;SDS011;4940;50.900;4.672;2023-06-14T10:00:49;9.45;;;6.35;;
9801;SDS011;4940;50.900;4.672;2023-06-14T10:03:21;8.65;;;6.07;;
9801;SDS011;4940;50.900;4.672;2023-06-14T10:05:51;8.73;;;5.32;;
9801;SDS011;4940;50.900;4.672;2023-06-14T10:08:23;6.38;;;5.78;;
9801;SDS011;4940;50.900;4.672;2023-06-14T10:10:55;6.20;;;5.60;;
9801;SDS011;4940;50.900;4.672;2023-06-14T10:13:24;9.82;;;6.00;;
9801;SDS011;4940;50.900;4.672;2023-06-14T10:15:54;7.03;;;5.97;;
9801;SDS011;4940;50.900;4.672;2023-06-14T10:18:29;12.85;;;6.43;;
9801;SDS011;4940;50.900;4.672;2023-06-14T10:21:03;7.53;;;5.22;;
9801;SDS011;4940;50.900;4.672;2023-06-14T10:23:36;8.77;;;5.55;;
9801;SDS011;4940;50.900;4.672;2023-06-14T10:26:08;7.97;;;5.53;;
9801;SDS011;4940;50.900;4.672;2023-06-14T10:28:45;6.75;;;5.82;;
9801;SDS011;4940;50.900;4.672;2023-06-14T10:31:40;6.38;;;5.57;;
9801;SDS011;4940;50.900;4.672;2023-06-14T10:37:17;8.85;;;5.95;;
9801;SDS011;4940;50.900;4.672;2023-06-14T10:39:45;5.82;;;5.32;;
9801;SDS011;4940;50.900;4.672;2023-06-14T10:42:12;6.35;;;5.28;;
9801;SDS011;4940;50.900;4.672;2023-06-14T10:44:42;5.90;;;5.40;;
9801;SDS011;4940;50.900;4.672;2023-06-14T10:47:10;7.32;;;4.93;;
9801;SDS011;4940;50.900;4.672;2023-06-14T10:49:39;6.15;;;5.55;;
9801;SDS011;4940;50.900;4.672;2023-06-14T10:52:11;8.10;;;5.28;;
9801;SDS011;4940;50.900;4.672;2023-06-14T10:57:40;9.15;;;5.30;;
9801;SDS011;4940;50.900;4.672;2023-06-14T11:00:10;6.20;;;5.13;;
9801;SDS011;4940;50.900;4.672;2023-06-14T11:02:50;7.50;;;5.13;;
9801;SDS011;4940;50.900;4.672;2023-06-14T11:05:23;5.82;;;4.93;;
9801;SDS011;4940;50.900;4.672;2023-06-14T11:07:55;8.27;;;5.07;;
9801;SDS011;4940;50.900;4.672;2023-06-14T11:10:37;7.20;;;4.60;;
9801;SDS011;4940;50.900;4.672;2023-06-14T11:13:05;5.22;;;4.40;;
9801;SDS011;4940;50.900;4.672;2023-06-14T11:15:34;7.55;;;5.57;;
9801;SDS011;4940;50.900;4.672;2023-06-14T11:18:02;5.78;;;4.70;;
9801;SDS011;4940;50.900;4.672;2023-06-14T11:20:31;5.38;;;4.80;;
9801;SDS011;4940;50.900;4.672;2023-06-14T11:22:59;9.25;;;5.38;;
9801;SDS011;4940;50.900;4.672;2023-06-14T11:25:27;6.28;;;4.72;;
9801;SDS011;4940;50.900;4.672;2023-06-14T11:27:54;8.02;;;5.10;;
9801;SDS011;4940;50.900;4.672;2023-06-14T11:30:22;6.88;;;4.55;;
9801;SDS011;4940;50.900;4.672;2023-06-14T11:32:52;5.88;;;4.72;;
9801;SDS011;4940;50.900;4.672;2023-06-14T11:35:21;5.80;;;5.30;;
9801;SDS011;4940;50.900;4.672;2023-06-14T11:37:50;7.57;;;4.90;;
9801;SDS011;4940;50.900;4.672;2023-06-14T11:40:22;6.35;;;4.78;;
9801;SDS011;4940;50.900;4.672;2023-06-14T11:42:54;5.80;;;4.57;;
9801;SDS011;4940;50.900;4.672;2023-06-14T11:45:25;5.72;;;4.80;;
9801;SDS011;4940;50.900;4.672;2023-06-14T11:47:55;5.70;;;4.75;;
9801;SDS011;4940;50.900;4.672;2023-06-14T11:50:23;6.47;;;4.60;;
9801;SDS011;4940;50.900;4.672;2023-06-14T11:52:54;5.53;;;5.03;;
9801;SDS011;4940;50.900;4.672;2023-06-14T11:55:22;7.95;;;4.85;;
9801;SDS011;4940;50.900;4.672;2023-06-14T11:57:50;5.60;;;5.10;;
9801;SDS011;4940;50.900;4.672;2023-06-14T12:00:17;8.80;;;5.07;;
9801;SDS011;4940;50.900;4.672;2023-06-14T12:02:52;9.88;;;5.03;;
9801;SDS011;4940;50.900;4.672;2023-06-14T12:05:22;5.93;;;4.43;;
9801;SDS011;4940;50.900;4.672;2023-06-14T12:07:57;8.98;;;4.70;;
9801;SDS011;4940;50.900;4.672;2023-06-14T12:10:25;4.70;;;4.03;;
9801;SDS011;4940;50.900;4.672;2023-06-14T12:12:56;5.25;;;4.03;;
9801;SDS011;4940;50.900;4.672;2023-06-14T12:15:24;4.45;;;4.05;;
9801;SDS011;4940;50.900;4.672;2023-06-14T12:17:54;4.65;;;3.97;;
9801;SDS011;4940;50.900;4.672;2023-06-14T12:20:28;4.80;;;4.38;;
9801;SDS011;4940;50.900;4.672;2023-06-14T12:22:58;6.53;;;3.50;;
9801;SDS011;4940;50.900;4.672;2023-06-14T12:25:30;5.20;;;3.97;;
9801;SDS011;4940;50.900;4.672;2023-06-14T12:27:58;3.92;;;3.53;;
9801;SDS011;4940;50.900;4.672;2023-06-14T12:30:30;5.03;;;4.00;;
9801;SDS011;4940;50.900;4.672;2023-06-14T12:32:57;4.45;;;3.92;;
9801;SDS011;4940;50.900;4.672;2023-06-14T12:35:27;6.90;;;4.22;;
9801;SDS011;4940;50.900;4.672;2023-06-14T12:37:54;7.28;;;3.88;;
9801;SDS011;4940;50.900;4.672;2023-06-14T12:40:21;6.75;;;4.25;;
9801;SDS011;4940;50.900;4.672;2023-06-14T12:42:49;5.22;;;3.95;;
9801;SDS011;4940;50.900;4.672;2023-06-14T12:45:16;4.00;;;3.70;;
9801;SDS011;4940;50.900;4.672;2023-06-14T12:47:43;5.82;;;3.50;;
9801;SDS011;4940;50.900;4.672;2023-06-14T12:50:11;4.25;;;3.65;;
9801;SDS011;4940;50.900;4.672;2023-06-14T12:52:40;3.65;;;3.35;;
9801;SDS011;4940;50.900;4.672;2023-06-14T12:55:07;7.72;;;3.42;;
9801;SDS011;4940;50.900;4.672;2023-06-14T12:57:35;6.00;;;3.88;;
9801;SDS011;4940;50.900;4.672;2023-06-14T13:00:03;4.20;;;3.60;;
9801;SDS011;4940;50.900;4.672;2023-06-14T13:02:32;4.80;;;3.40;;
9801;SDS011;4940;50.900;4.672;2023-06-14T13:05:00;5.32;;;3.15;;
9801;SDS011;4940;50.900;4.672;2023-06-14T13:07:29;9.80;;;3.92;;
9801;SDS011;4940;50.900;4.672;2023-06-14T13:09:57;4.22;;;2.97;;
9801;SDS011;4940;50.900;4.672;2023-06-14T13:12:24;6.30;;;3.10;;
9801;SDS011;4940;50.900;4.672;2023-06-14T13:14:52;4.50;;;3.13;;
9801;SDS011;4940;50.900;4.672;2023-06-14T13:17:19;4.63;;;3.25;;
9801;SDS011;4940;50.900;4.672;2023-06-14T13:19:46;5.47;;;3.00;;
9801;SDS011;4940;50.900;4.672;2023-06-14T13:22:14;8.32;;;2.90;;
9801;SDS011;4940;50.900;4.672;2023-06-14T13:24:41;10.68;;;2.60;;
9801;SDS011;4940;50.900;4.672;2023-06-14T13:27:10;2.38;;;2.20;;
9801;SDS011;4940;50.900;4.672;2023-06-14T13:29:39;3.63;;;2.45;;
9801;SDS011;4940;50.900;4.672;2023-06-14T13:32:07;2.63;;;2.42;;
9801;SDS011;4940;50.900;4.672;2023-06-14T13:34:34;2.92;;;2.63;;
9801;SDS011;4940;50.900;4.672;2023-06-14T13:37:01;2.67;;;2.30;;
9801;SDS011;4940;50.900;4.672;2023-06-14T13:39:29;2.38;;;2.17;;
9801;SDS011;4940;50.900;4.672;2023-06-14T13:41:56;2.53;;;2.33;;
9801;SDS011;4940;50.900;4.672;2023-06-14T13:44:24;2.40;;;2.20;;
9801;SDS011;4940;50.900;4.672;2023-06-14T13:46:52;3.70;;;2.30;;
9801;SDS011;4940;50.900;4.672;2023-06-14T13:49:19;6.45;;;2.42;;
9801;SDS011;4940;50.900;4.672;2023-06-14T13:51:47;3.25;;;2.20;;
9801;SDS011;4940;50.900;4.672;2023-06-14T13:54:14;3.45;;;3.08;;
9801;SDS011;4940;50.900;4.672;2023-06-14T13:56:41;3.22;;;2.35;;
9801;SDS011;4940;50.900;4.672;2023-06-14T13:59:09;4.60;;;2.60;;
9801;SDS011;4940;50.900;4.672;2023-06-14T14:01:37;3.08;;;2.10;;
9801;SDS011;4940;50.900;4.672;2023-06-14T14:04:05;2.00;;;1.90;;
9801;SDS011;4940;50.900;4.672;2023-06-14T14:06:32;2.28;;;2.08;;
9801;SDS011;4940;50.900;4.672;2023-06-14T14:09:00;2.30;;;2.10;;
9801;SDS011;4940;50.900;4.672;2023-06-14T14:11:27;6.22;;;2.40;;
9801;SDS011;4940;50.900;4.672;2023-06-14T14:13:58;5.00;;;2.50;;
9801;SDS011;4940;50.900;4.672;2023-06-14T14:16:26;4.05;;;2.35;;
9801;SDS011;4940;50.900;4.672;2023-06-14T14:18:55;2.10;;;1.77;;
9801;SDS011;4940;50.900;4.672;2023-06-14T14:21:22;3.58;;;2.10;;
9801;SDS011;4940;50.900;4.672;2023-06-14T14:23:49;4.70;;;2.28;;
9801;SDS011;4940;50.900;4.672;2023-06-14T14:26:16;2.42;;;2.20;;
9801;SDS011;4940;50.900;4.672;2023-06-14T14:28:44;3.35;;;2.10;;
9801;SDS011;4940;50.900;4.672;2023-06-14T14:31:11;3.53;;;2.00;;
9801;SDS011;4940;50.900;4.672;2023-06-14T14:33:38;3.90;;;2.38;;
9801;SDS011;4940;50.900;4.672;2023-06-14T14:36:07;4.47;;;2.08;;
9801;SDS011;4940;50.900;4.672;2023-06-14T14:38:34;2.42;;;2.03;;
9801;SDS011;4940;50.900;4.672;2023-06-14T14:41:02;3.83;;;2.10;;
9801;SDS011;4940;50.900;4.672;2023-06-14T14:43:29;3.70;;;2.20;;
9801;SDS011;4940;50.900;4.672;2023-06-14T14:45:57;3.53;;;2.10;;
9801;SDS011;4940;50.900;4.672;2023-06-14T14:48:24;2.35;;;2.00;;
9801;SDS011;4940;50.900;4.672;2023-06-14T14:50:52;3.20;;;2.20;;
9801;SDS011;4940;50.900;4.672;2023-06-14T14:53:21;6.70;;;2.30;;
9801;SDS011;4940;50.900;4.672;2023-06-14T14:55:48;2.78;;;2.00;;
9801;SDS011;4940;50.900;4.672;2023-06-14T14:58:16;2.95;;;2.00;;
9801;SDS011;4940;50.900;4.672;2023-06-14T15:00:43;2.15;;;1.98;;
9801;SDS011;4940;50.900;4.672;2023-06-14T15:03:10;2.53;;;2.22;;
9801;SDS011;4940;50.900;4.672;2023-06-14T15:05:38;6.03;;;2.20;;
9801;SDS011;4940;50.900;4.672;2023-06-14T15:08:05;2.15;;;1.95;;
9801;SDS011;4940;50.900;4.672;2023-06-14T15:10:38;3.38;;;2.30;;
9801;SDS011;4940;50.900;4.672;2023-06-14T15:13:06;2.38;;;2.15;;
9801;SDS011;4940;50.900;4.672;2023-06-14T15:15:34;4.00;;;2.00;;
9801;SDS011;4940;50.900;4.672;2023-06-14T15:18:01;6.05;;;2.03;;
9801;SDS011;4940;50.900;4.672;2023-06-14T15:20:29;2.22;;;1.95;;
9801;SDS011;4940;50.900;4.672;2023-06-14T15:22:56;3.30;;;2.20;;
9801;SDS011;4940;50.900;4.672;2023-06-14T15:25:24;4.60;;;2.15;;
9801;SDS011;4940;50.900;4.672;2023-06-14T15:27:54;3.50;;;2.22;;